Njord R — OYOZ2 — position and weather

sailwx.info

Track history (hours):
 
Tides and Currents Weather Stations Pressure Air Temp Water Temp Dewpoint Dewpoint Depression Visibility Wind Speed Wind Dir Waves Ship Positions

Njord R

Last reported at 2017-Sep-22 02:00 UTC. Time now 2017-Sep-23 16:40 UTC.
Position N 51°37' E 003°23'.

Length 111 m; draft 7 m.

Type: Dredging. MMSI: 219387000.

Date/timePositionNaut miles runAvg speedWind from/ knotsBaromVisibWave heightAir tempDewpointWater temp
2017-Sep-22 02:00N 51°37' E 003°23'5 9.7
2017-Sep-22 01:30N 51°33' E 003°28'0 0.0
2017-Sep-22 00:59N 51°33' E 003°27'0 0.2
2017-Sep-22 00:30N 51°33' E 003°27'1 1.9
2017-Sep-22 00:00N 51°34' E 003°26'3 6.7
2017-Sep-21 23:30N 51°37' E 003°23'4 7.2
2017-Sep-21 23:00N 51°40' E 003°22'0 0.6
2017-Sep-21 22:30N 51°40' E 003°23'0 0.8
2017-Sep-21 22:00N 51°40' E 003°22'1 1.7
2017-Sep-21 21:30N 51°39' E 003°22'4 8.5
2017-Sep-21 21:00N 51°35' E 003°24'4 7.2
2017-Sep-21 20:30N 51°32' E 003°26'0 0.0
2017-Sep-21 20:00N 51°32' E 003°26'3 6.5
2017-Sep-21 19:29N 51°35' E 003°24'5 9.2
2017-Sep-21 19:00N 51°39' E 003°22'1 1.9
2017-Sep-21 18:25N 51°40' E 003°22'1 1.4
2017-Sep-21 17:59N 51°40' E 003°22'0 0.0
2017-Sep-21 17:26N 51°40' E 003°22'612.7
2017-Sep-21 17:00N 51°35' E 003°25'2 3.6
2017-Sep-21 16:30N 51°33' E 003°27'0 0.3
2017-Sep-21 16:00N 51°33' E 003°27'4 7.4
2017-Sep-21 15:28N 51°37' E 003°23'4 7.3
2017-Sep-21 14:58N 51°40' E 003°23'0 0.7
2017-Sep-21 14:29N 51°40' E 003°22'0 0.4
2017-Sep-21 13:48N 51°40' E 003°22'412.2
2017-Sep-21 13:30N 51°36' E 003°24'4 7.7
2017-Sep-21 12:59N 51°33' E 003°27'0 0.1
2017-Sep-21 12:30N 51°33' E 003°27'3 4.8
2017-Sep-21 11:58N 51°35' E 003°24'510.7
2017-Sep-21 11:30N 51°40' E 003°22'1 1.0
2017-Sep-21 10:49N 51°40' E 003°23'0 1.0
2017-Sep-21 10:28N 51°40' E 003°22'3 5.8
2017-Sep-21 10:00N 51°37' E 003°23'510.9
2017-Sep-21 09:30N 51°32' E 003°26'0 0.6
2017-Sep-21 09:00N 51°32' E 003°26'0 0.0
2017-Sep-21 08:30N 51°32' E 003°26'2 3.9
2017-Sep-21 07:54N 51°34' E 003°24'4 9.3
2017-Sep-21 07:30N 51°37' E 003°22'3 5.5
2017-Sep-21 06:59N 51°40' E 003°23'1 1.0
2017-Sep-21 06:27N 51°40' E 003°22'1 1.3
2017-Sep-21 06:00N 51°40' E 003°23'3 6.4
2017-Sep-21 05:30N 51°37' E 003°23'5 9.2
2017-Sep-21 04:58N 51°33' E 003°27'0 0.2
2017-Sep-21 04:29N 51°33' E 003°27'0 0.2
2017-Sep-21 04:00N 51°33' E 003°27'2 4.6
2017-Sep-21 03:28N 51°35' E 003°25'5 8.9
2017-Sep-21 02:56N 51°40' E 003°22'0 0.4
2017-Sep-21 02:30N 51°40' E 003°22'1 1.1
2017-Sep-21 02:00N 51°40' E 003°23'3 5.2
2017-Sep-21 01:30N 51°38' E 003°23'510.5
2017-Sep-21 01:00N 51°33' E 003°27'0 0.0
2017-Sep-21 00:30N 51°33' E 003°27'0 0.3
2017-Sep-21 00:00N 51°33' E 003°27'2 4.2
2017-Sep-20 23:28N 51°35' E 003°25'510.8
2017-Sep-20 23:00N 51°40' E 003°22'1 1.7
2017-Sep-20 22:30N 51°40' E 003°23'0 0.8
2017-Sep-20 22:00N 51°40' E 003°22'3 6.1
2017-Sep-20 21:30N 51°37' E 003°23'510.6
2017-Sep-20 21:01N 51°32' E 003°26'0 0.0
2017-Sep-20 20:30N 51°32' E 003°26'0 0.1
2017-Sep-20 20:00N 51°32' E 003°26'1 2.3
2017-Sep-20 19:30N 51°33' E 003°25'5 8.2
2017-Sep-20 18:55N 51°37' E 003°23'3 6.0
2017-Sep-20 18:29N 51°40' E 003°22'0 0.4
2017-Sep-20 18:00N 51°40' E 003°23'0 0.9
2017-Sep-20 17:30N 51°40' E 003°22'0 0.2
2017-Sep-20 16:57N 51°40' E 003°22'4 9.9
2017-Sep-20 16:30N 51°36' E 003°24'3 6.2
2017-Sep-20 15:59N 51°33' E 003°27'0 0.1
2017-Sep-20 15:27N 51°33' E 003°27'3 6.9
2017-Sep-20 14:59N 51°36' E 003°24'5 4.6
2017-Sep-20 14:00N 51°40' E 003°23'1 2.3
2017-Sep-20 13:30N 51°39' E 003°22'612.8
2017-Sep-20 13:00N 51°33' E 003°27'0 0.9
2017-Sep-20 12:30N 51°33' E 003°27'0 0.0
2017-Sep-20 12:00N 51°33' E 003°27'0 0.5
2017-Sep-20 11:30N 51°33' E 003°27'1 1.6
2017-Sep-20 11:00N 51°34' E 003°26'0 0.2
2017-Sep-20 10:30N 51°34' E 003°26'0 0.1
2017-Sep-20 10:00N 51°34' E 003°26'0 0.2
2017-Sep-20 09:30N 51°33' E 003°26'0 0.4
2017-Sep-20 09:00N 51°34' E 003°26'2 4.1
2017-Sep-20 08:30N 51°35' E 003°23'4 5.7
2017-Sep-20 07:53N 51°38' E 003°22'2 3.9
2017-Sep-20 07:26N 51°40' E 003°23'0 0.3
2017-Sep-20 06:59N 51°40' E 003°22'0 0.2
2017-Sep-20 06:30N 51°40' E 003°22'1 1.1
2017-Sep-20 05:57N 51°40' E 003°22'3 6.8
2017-Sep-20 05:30N 51°37' E 003°23'510.3
2017-Sep-20 04:59N 51°32' E 003°26'1 1.8
2017-Sep-20 04:30N 51°33' E 003°26'4 8.5
2017-Sep-20 04:00N 51°37' E 003°23'3 6.4
2017-Sep-20 03:29N 51°40' E 003°22'1 1.0
2017-Sep-20 02:59N 51°40' E 003°23'0 0.8
2017-Sep-20 02:30N 51°40' E 003°22'4 8.5
2017-Sep-20 02:00N 51°36' E 003°24'3 6.8
2017-Sep-20 01:30N 51°33' E 003°28'0 0.0
2017-Sep-20 00:59N 51°33' E 003°28'0 0.2
2017-Sep-20 00:30N 51°33' E 003°27'0 0.1
2017-Sep-20 00:00N 51°33' E 003°27'3 5.1
2017-Sep-19 23:25N 51°35' E 003°24'410.5
2017-Sep-19 23:00N 51°40' E 003°22'1 1.4
2017-Sep-19 22:30N 51°40' E 003°23'1 1.3
2017-Sep-19 22:00N 51°40' E 003°22'3 5.1
2017-Sep-19 21:30N 51°37' E 003°23'510.8
2017-Sep-19 21:00N 51°32' E 003°26'1 1.2
2017-Sep-19 20:30N 51°32' E 003°26'3 6.0
2017-Sep-19 20:00N 51°35' E 003°24'510.6
2017-Sep-19 19:30N 51°40' E 003°22'1 1.2
2017-Sep-19 19:00N 51°40' E 003°22'0 0.7
2017-Sep-19 18:30N 51°40' E 003°23'0 0.9
2017-Sep-19 18:00N 51°40' E 003°22'4 8.0
2017-Sep-19 17:30N 51°36' E 003°24'5 9.1
2017-Sep-19 17:00N 51°32' E 003°26'0 0.0
2017-Sep-19 16:28N 51°32' E 003°26'2 3.5
2017-Sep-19 16:00N 51°33' E 003°26'3 5.0
2017-Sep-19 15:28N 51°36' E 003°24'4 9.1
2017-Sep-19 15:00N 51°40' E 003°22'0 0.9
2017-Sep-19 14:30N 51°40' E 003°22'0 0.1
2017-Sep-19 14:00N 51°40' E 003°22'4 8.1
2017-Sep-19 13:30N 51°36' E 003°24'4 7.6
2017-Sep-19 13:00N 51°33' E 003°27'0 0.1
2017-Sep-19 12:30N 51°33' E 003°27'0 0.1
2017-Sep-19 12:00N 51°33' E 003°27'0 0.3
2017-Sep-19 11:30N 51°33' E 003°27'4 7.5
2017-Sep-19 11:00N 51°37' E 003°24'4 7.9
2017-Sep-19 10:30N 51°40' E 003°23'1 1.1
2017-Sep-19 10:00N 51°40' E 003°22'0 0.8
2017-Sep-19 09:29N 51°40' E 003°23'1 1.1
2017-Sep-19 09:00N 51°40' E 003°22'3 5.4
2017-Sep-19 08:30N 51°37' E 003°23'510.4
2017-Sep-19 08:00N 51°32' E 003°26'0 0.8
2017-Sep-19 07:29N 51°32' E 003°26'0 0.0
2017-Sep-19 07:00N 51°32' E 003°26'3 6.3
2017-Sep-19 06:30N 51°35' E 003°24'5 9.2
2017-Sep-19 06:00N 51°39' E 003°20'2 3.9
2017-Sep-19 05:29N 51°40' E 003°23'0 0.2
2017-Sep-19 04:59N 51°40' E 003°23'0 1.0
2017-Sep-19 04:30N 51°40' E 003°22'4 7.6
2017-Sep-19 04:00N 51°36' E 003°24'4 7.3
2017-Sep-19 03:30N 51°33' E 003°27'0 0.1
2017-Sep-19 03:00N 51°33' E 003°27'0 0.2
2017-Sep-19 02:30N 51°33' E 003°27'4 7.9
2017-Sep-19 02:00N 51°37' E 003°24'3 6.6
2017-Sep-19 01:29N 51°40' E 003°22'1 1.4
2017-Sep-19 00:59N 51°40' E 003°23'1 2.3
2017-Sep-19 00:30N 51°39' E 003°22'611.7
2017-Sep-19 00:00N 51°34' E 003°26'1 2.4
2017-Sep-18 23:30N 51°33' E 003°27'0 0.1
2017-Sep-18 23:00N 51°33' E 003°27'0 0.2
2017-Sep-18 22:30N 51°33' E 003°27'1 1.3
2017-Sep-18 21:59N 51°34' E 003°26'5 9.4
2017-Sep-18 21:26N 51°38' E 003°22'2 3.8
2017-Sep-18 21:00N 51°40' E 003°22'0 0.2
2017-Sep-18 20:30N 51°40' E 003°22'1 1.1
2017-Sep-18 20:00N 51°40' E 003°22'5 9.8
2017-Sep-18 19:30N 51°35' E 003°24'3 6.6
2017-Sep-18 19:00N 51°32' E 003°26'0 0.1
2017-Sep-18 18:30N 51°32' E 003°26'1 2.9
2017-Sep-18 17:59N 51°33' E 003°25'4 9.4
2017-Sep-18 17:30N 51°37' E 003°22'3 5.3
2017-Sep-18 16:59N 51°40' E 003°23'0 0.4
2017-Sep-18 16:30N 51°40' E 003°22'1 1.3
2017-Sep-18 16:01N 51°40' E 003°22'612.4
2017-Sep-18 15:30N 51°34' E 003°26'1 2.0
2017-Sep-18 15:00N 51°33' E 003°27'0 0.0
2017-Sep-18 14:30N 51°33' E 003°27'0 0.1
2017-Sep-18 14:00N 51°33' E 003°27'2 4.9
2017-Sep-18 13:30N 51°35' E 003°25'5 8.9
2017-Sep-18 12:57N 51°40' E 003°22'0 0.2
2017-Sep-18 12:30N 51°40' E 003°22'1 1.0
2017-Sep-18 11:53N 51°40' E 003°23'0 1.2
2017-Sep-18 11:30N 51°40' E 003°22'5 9.9
2017-Sep-18 11:00N 51°35' E 003°25'3 5.2
2017-Sep-18 10:30N 51°33' E 003°27'0 0.1
2017-Sep-18 10:00N 51°33' E 003°27'1 1.4
2017-Sep-18 09:30N 51°34' E 003°26'0 0.4
2017-Sep-18 09:00N 51°34' E 003°26'2 3.0
2017-Sep-18 08:30N 51°35' E 003°24'4 8.6
2017-Sep-18 08:00N 51°39' E 003°22'2 3.5
2017-Sep-18 07:30N 51°40' E 003°23'0 0.9
2017-Sep-18 06:58N 51°40' E 003°22'0 0.9
2017-Sep-18 06:29N 51°40' E 003°22'4 8.3
2017-Sep-18 06:00N 51°36' E 003°24'4 8.4
2017-Sep-18 05:30N 51°32' E 003°26'0 0.1
2017-Sep-18 04:59N 51°32' E 003°26'0 0.0
2017-Sep-18 04:30N 51°32' E 003°26'1 2.3
2017-Sep-18 04:00N 51°33' E 003°25'5 9.3
2017-Sep-18 03:29N 51°38' E 003°23'2 4.6
2017-Sep-18 03:00N 51°40' E 003°22'0 0.5
2017-Sep-18 02:27N 51°40' E 003°22'1 2.9
2017-Sep-18 02:00N 51°39' E 003°22'612.2
2017-Sep-18 01:31N 51°33' E 003°27'0 0.7
2017-Sep-18 01:00N 51°33' E 003°27'0 0.2
2017-Sep-18 00:30N 51°33' E 003°27'3 6.4
2017-Sep-18 00:00N 51°36' E 003°24'4 7.8
2017-Sep-17 23:28N 51°40' E 003°22'0 0.9
2017-Sep-17 23:00N 51°40' E 003°22'1 1.5
2017-Sep-17 22:30N 51°40' E 003°22'5 9.8
2017-Sep-17 22:00N 51°35' E 003°25'3 5.1
2017-Sep-17 21:30N 51°33' E 003°27'0 0.1
2017-Sep-17 21:00N 51°33' E 003°27'1 1.7
2017-Sep-17 20:30N 51°34' E 003°26'0 0.2
2017-Sep-17 20:00N 51°34' E 003°26'1 1.1
2017-Sep-17 19:30N 51°34' E 003°25'2 4.3
2017-Sep-17 19:00N 51°36' E 003°24'2 4.0
2017-Sep-17 18:27N 51°38' E 003°22'2 4.8
2017-Sep-17 18:00N 51°40' E 003°22'0 0.2
2017-Sep-17 17:30N 51°40' E 003°22'0 0.8
2017-Sep-17 17:00N 51°40' E 003°22'2 3.5
2017-Sep-17 16:29N 51°38' E 003°22'612.0
2017-Sep-17 16:00N 51°33' E 003°26'1 1.4
2017-Sep-17 15:29N 51°32' E 003°26'1 2.3
2017-Sep-17 14:58N 51°33' E 003°25'4 8.5
2017-Sep-17 14:30N 51°36' E 003°22'4 8.2
2017-Sep-17 14:00N 51°40' E 003°23'1 2.0
2017-Sep-17 13:30N 51°40' E 003°22'1 1.1
2017-Sep-17 13:01N 51°40' E 003°22'0 0.9
2017-Sep-17 12:30N 51°40' E 003°23'3 5.1
2017-Sep-17 12:00N 51°38' E 003°23'511.0
2017-Sep-17 11:30N 51°33' E 003°27'0 0.2
2017-Sep-17 11:00N 51°33' E 003°27'0 0.0
2017-Sep-17 10:30N 51°33' E 003°27'0 0.0
2017-Sep-17 10:00N 51°33' E 003°27'0 0.1
2017-Sep-17 09:30N 51°33' E 003°27'0 0.4
2017-Sep-17 09:00N 51°33' E 003°27'3 5.8
2017-Sep-17 08:29N 51°36' E 003°24'4 8.6
2017-Sep-17 08:00N 51°40' E 003°22'1 1.3
2017-Sep-17 07:29N 51°40' E 003°23'0 0.5
2017-Sep-17 07:00N 51°40' E 003°22'1 1.1
2017-Sep-17 06:30N 51°40' E 003°22'5 9.6
2017-Sep-17 06:00N 51°35' E 003°24'4 6.9
2017-Sep-17 05:29N 51°32' E 003°26'0 0.0
2017-Sep-17 04:59N 51°32' E 003°26'0 0.1
2017-Sep-17 04:30N 51°32' E 003°26'3 4.5
2017-Sep-17 03:56N 51°34' E 003°24'4 9.3
2017-Sep-17 03:30N 51°38' E 003°22'2 3.9
2017-Sep-17 03:00N 51°40' E 003°22'0 0.6
2017-Sep-17 02:29N 51°40' E 003°22'2 3.5
2017-Sep-17 02:00N 51°38' E 003°22'611.9
2017-Sep-17 01:31N 51°33' E 003°27'0 0.1
2017-Sep-17 01:00N 51°33' E 003°27'0 0.4
2017-Sep-17 00:30N 51°33' E 003°27'4 8.3
2017-Sep-17 00:00N 51°37' E 003°23'3 6.3
2017-Sep-16 23:30N 51°40' E 003°22'0 0.4
2017-Sep-16 23:00N 51°40' E 003°22'0 0.2
2017-Sep-16 22:29N 51°40' E 003°22'5 9.8
2017-Sep-16 22:00N 51°36' E 003°24'3 6.1
2017-Sep-16 21:30N 51°33' E 003°27'0 0.0
2017-Sep-16 21:00N 51°33' E 003°27'0 0.3
2017-Sep-16 20:30N 51°33' E 003°27'4 7.6
2017-Sep-16 19:55N 51°37' E 003°23'3 7.2
2017-Sep-16 19:29N 51°40' E 003°20'1 1.3
2017-Sep-16 19:00N 51°39' E 003°21'1 2.2
2017-Sep-16 18:30N 51°40' E 003°23'0 0.5
2017-Sep-16 18:01N 51°40' E 003°22'1 1.1
2017-Sep-16 17:27N 51°40' E 003°22'3 7.7
2017-Sep-16 17:00N 51°36' E 003°24'5 9.5
2017-Sep-16 16:30N 51°32' E 003°26'0 0.3
2017-Sep-16 16:00N 51°32' E 003°26'0 0.0
2017-Sep-16 15:30N 51°32' E 003°26'4 7.4
2017-Sep-16 15:00N 51°36' E 003°24'4 8.6
2017-Sep-16 14:30N 51°40' E 003°22'1 1.4
2017-Sep-16 14:00N 51°40' E 003°22'1 1.0
2017-Sep-16 13:30N 51°40' E 003°22'510.0
2017-Sep-16 13:01N 51°35' E 003°25'3 5.3
2017-Sep-16 12:31N 51°33' E 003°27'0 0.1
2017-Sep-16 12:01N 51°33' E 003°27'1 1.2
2017-Sep-16 11:30N 51°34' E 003°26'4 8.4
2017-Sep-16 11:00N 51°37' E 003°23'3 5.5
2017-Sep-16 10:30N 51°40' E 003°22'0 0.4
2017-Sep-16 09:58N 51°40' E 003°22'1 1.3
2017-Sep-16 09:30N 51°40' E 003°23'3 6.8
2017-Sep-16 09:00N 51°37' E 003°24'4 8.5
2017-Sep-16 08:30N 51°33' E 003°27'0 0.1
2017-Sep-16 08:00N 51°33' E 003°27'0 0.1
2017-Sep-16 07:30N 51°33' E 003°27'1 1.7
2017-Sep-16 07:00N 51°34' E 003°26'0 0.4
2017-Sep-16 06:30N 51°34' E 003°26'1 1.1
2017-Sep-16 06:00N 51°34' E 003°25'2 4.1
2017-Sep-16 05:30N 51°36' E 003°24'3 6.2
2017-Sep-16 05:01N 51°39' E 003°22'2 3.2
2017-Sep-16 04:30N 51°40' E 003°23'0 0.9
2017-Sep-16 04:00N 51°40' E 003°22'1 2.2
2017-Sep-16 03:30N 51°39' E 003°22'611.7
2017-Sep-16 03:00N 51°33' E 003°25'2 3.2
2017-Sep-16 02:31N 51°32' E 003°26'0 0.1
2017-Sep-16 02:00N 51°32' E 003°26'5 7.6
2017-Sep-16 01:23N 51°36' E 003°23'4 9.3
2017-Sep-16 01:00N 51°40' E 003°22'1 1.1
2017-Sep-16 00:30N 51°40' E 003°23'1 1.0
2017-Sep-15 23:59N 51°40' E 003°22'510.9
2017-Sep-15 23:30N 51°35' E 003°24'2 4.8
2017-Sep-15 23:00N 51°33' E 003°27'0 0.0
2017-Sep-15 22:31N 51°33' E 003°27'1 2.0
2017-Sep-15 22:00N 51°34' E 003°26'5 9.3
2017-Sep-15 21:30N 51°38' E 003°22'2 3.4
2017-Sep-15 21:00N 51°40' E 003°22'1 1.7
2017-Sep-15 20:31N 51°40' E 003°23'1 2.4
2017-Sep-15 20:00N 51°39' E 003°22'510.4
2017-Sep-15 19:31N 51°35' E 003°25'2 3.7
2017-Sep-15 19:00N 51°33' E 003°27'0 0.1
2017-Sep-15 18:30N 51°33' E 003°27'1 1.4
2017-Sep-15 18:01N 51°34' E 003°26'3 5.1
2017-Sep-15 17:24N 51°36' E 003°24'4 9.0
2017-Sep-15 17:00N 51°40' E 003°22'0 0.6
2017-Sep-15 16:27N 51°40' E 003°22'0 0.8
2017-Sep-15 16:00N 51°40' E 003°23'2 4.9
2017-Sep-15 15:30N 51°38' E 003°23'510.9
2017-Sep-15 15:00N 51°33' E 003°25'1 1.9
2017-Sep-15 14:30N 51°32' E 003°26'0 0.1
2017-Sep-15 14:00N 51°32' E 003°26'2 4.0
2017-Sep-15 13:30N 51°34' E 003°25'6 9.5
2017-Sep-15 12:53N 51°39' E 003°22'0 0.7
2017-Sep-15 12:09N 51°40' E 003°21'0 1.3
2017-Sep-15 12:00N 51°40' E 003°22'1 1.3
2017-Sep-15 11:25N 51°40' E 003°23'3 6.2
2017-Sep-15 11:01N 51°38' E 003°23'510.6
2017-Sep-15 10:31N 51°33' E 003°27'0 0.1
2017-Sep-15 10:00N 51°33' E 003°27'0 0.1
2017-Sep-15 09:31N 51°33' E 003°27'1 1.2
2017-Sep-15 09:00N 51°34' E 003°26'4 8.6
2017-Sep-15 08:29N 51°37' E 003°23'3 4.6
2017-Sep-15 07:56N 51°40' E 003°22'0 0.8
2017-Sep-15 07:28N 51°40' E 003°22'0 1.0
2017-Sep-15 07:00N 51°40' E 003°23'4 8.7
2017-Sep-15 06:31N 51°36' E 003°24'3 6.8
2017-Sep-15 06:00N 51°33' E 003°27'0 0.1
2017-Sep-15 05:31N 51°33' E 003°27'1 1.2
2017-Sep-15 04:59N 51°34' E 003°26'1 3.0
2017-Sep-15 04:30N 51°35' E 003°25'2 3.7
2017-Sep-15 04:00N 51°36' E 003°24'3 6.7
2017-Sep-15 03:30N 51°39' E 003°22'0 0.6
2017-Sep-15 03:01N 51°40' E 003°22'0 1.0
2017-Sep-15 02:30N 51°40' E 003°22'0 0.5
2017-Sep-15 01:59N 51°40' E 003°22'0 0.0
2017-Sep-15 01:26N 51°40' E 003°22'0 0.1
2017-Sep-15 00:59N 51°40' E 003°22'0 0.0
2017-Sep-15 00:26N 51°40' E 003°22'0 0.1
2017-Sep-14 23:47N 51°40' E 003°22'0 0.1
2017-Sep-14 23:29N 51°40' E 003°22'0 0.0
2017-Sep-14 22:50N 51°40' E 003°22'0 0.0
2017-Sep-14 22:26N 51°40' E 003°22'0 0.1
2017-Sep-14 21:53N 51°40' E 003°22'0 0.0
2017-Sep-14 21:29N 51°40' E 003°22'0 0.1
2017-Sep-14 20:59N 51°40' E 003°22'0 0.0
2017-Sep-14 19:44N 51°40' E 003°22'0 0.1
2017-Sep-14 19:19N 51°40' E 003°22'0 0.0
2017-Sep-14 18:59N 51°40' E 003°22'0 0.1
2017-Sep-14 18:26N 51°40' E 003°22'0 0.0
2017-Sep-14 17:08N 51°40' E 003°22'0 0.0
2017-Sep-14 16:14N 51°40' E 003°22'0 0.1
2017-Sep-14 15:59N 51°40' E 003°22'0 0.0
2017-Sep-14 15:29N 51°40' E 003°22'0 0.1
2017-Sep-14 14:53N 51°40' E 003°22'0 0.1
2017-Sep-14 14:25N 51°40' E 003°22'0 0.0
2017-Sep-14 13:50N 51°40' E 003°22'0 0.0
2017-Sep-14 13:22N 51°40' E 003°22'0 0.1
2017-Sep-14 12:55N 51°40' E 003°22'0 0.1
2017-Sep-14 12:29N 51°40' E 003°22'0 0.3
2017-Sep-14 12:00N 51°40' E 003°22'1 1.1
2017-Sep-14 11:30N 51°40' E 003°23'2 3.4
2017-Sep-14 11:00N 51°39' E 003°22'510.4
2017-Sep-14 10:31N 51°34' E 003°26'1 2.3
2017-Sep-14 10:00N 51°33' E 003°27'0 0.1
2017-Sep-14 09:30N 51°33' E 003°27'3 6.4
2017-Sep-14 08:58N 51°36' E 003°24'4 8.3
2017-Sep-14 08:29N 51°40' E 003°21'0 1.0
2017-Sep-14 08:00N 51°40' E 003°22'1 1.2
2017-Sep-14 07:30N 51°40' E 003°23'3 5.3
2017-Sep-14 07:00N 51°38' E 003°23'611.5
2017-Sep-14 06:31N 51°32' E 003°26'611.0
2017-Sep-14 06:00N 51°28' E 003°31'4 8.3
2017-Sep-14 05:30N 51°26' E 003°37'3 6.3
2017-Sep-14 05:00N 51°28' E 003°42'1 1.9
2017-Sep-14 04:30N 51°29' E 003°42'0 0.0
2017-Sep-14 04:00N 51°29' E 003°42'0 0.0
2017-Sep-14 03:27N 51°29' E 003°42'0 0.0
2017-Sep-14 03:00N 51°29' E 003°42'0 0.0
2017-Sep-14 02:31N 51°29' E 003°42'0 0.0
2017-Sep-14 02:01N 51°29' E 003°42'0 0.0
2017-Sep-14 01:30N 51°29' E 003°42'0 0.0
2017-Sep-14 01:01N 51°29' E 003°42'0 0.0
2017-Sep-14 00:30N 51°29' E 003°42'0 0.0
2017-Sep-14 00:00N 51°29' E 003°42'0 0.0
2017-Sep-13 23:30N 51°29' E 003°42'0 0.0
2017-Sep-13 23:00N 51°29' E 003°42'0 0.0
2017-Sep-13 22:30N 51°29' E 003°42'0 0.0
2017-Sep-13 22:00N 51°29' E 003°42'0 0.0
2017-Sep-13 21:31N 51°29' E 003°42'0 0.0
2017-Sep-13 21:00N 51°29' E 003°42'0 0.0
2017-Sep-13 20:30N 51°29' E 003°42'0 0.0
2017-Sep-13 20:00N 51°29' E 003°42'0 0.0
2017-Sep-13 19:30N 51°29' E 003°42'0 0.0
2017-Sep-13 19:00N 51°29' E 003°42'0 0.0
2017-Sep-13 18:30N 51°29' E 003°42'0 0.0
2017-Sep-13 18:01N 51°29' E 003°42'0 0.0
2017-Sep-13 17:29N 51°29' E 003°42'0 0.0
2017-Sep-13 17:00N 51°29' E 003°42'0 0.0
2017-Sep-13 16:30N 51°29' E 003°42'0 0.0
2017-Sep-13 16:00N 51°29' E 003°42'0 0.0
2017-Sep-13 15:30N 51°29' E 003°42'0 0.0
2017-Sep-13 15:00N 51°29' E 003°42'0 0.0
2017-Sep-13 14:30N 51°29' E 003°42'0 0.0
2017-Sep-13 14:00N 51°29' E 003°42'0 0.0
2017-Sep-13 13:31N 51°29' E 003°42'0 0.0
2017-Sep-13 13:01N 51°29' E 003°42'0 0.0
2017-Sep-13 12:31N 51°29' E 003°42'0 0.0
2017-Sep-13 12:01N 51°29' E 003°42'0 0.0
2017-Sep-13 11:31N 51°29' E 003°42'0 0.0
2017-Sep-13 10:59N 51°29' E 003°42'0 0.0
2017-Sep-13 10:30N 51°29' E 003°42'0 0.0
2017-Sep-13 10:01N 51°29' E 003°42'0 0.0
2017-Sep-13 09:31N 51°29' E 003°42'0 0.0
2017-Sep-13 09:00N 51°29' E 003°42'0 0.0
2017-Sep-13 08:31N 51°29' E 003°42'0 0.0
2017-Sep-13 08:00N 51°29' E 003°42'0 0.0
2017-Sep-13 07:29N 51°29' E 003°42'0 0.0
2017-Sep-13 07:00N 51°29' E 003°42'0 0.0
2017-Sep-13 06:30N 51°29' E 003°42'0 0.0
2017-Sep-13 06:01N 51°29' E 003°42'0 0.0
2017-Sep-13 05:31N 51°29' E 003°42'0 0.0
2017-Sep-13 05:00N 51°29' E 003°42'0 0.0
2017-Sep-13 04:30N 51°29' E 003°42'0 0.0
2017-Sep-13 04:00N 51°29' E 003°42'0 0.0
2017-Sep-13 03:30N 51°29' E 003°42'0 0.0
2017-Sep-13 03:01N 51°29' E 003°42'0 0.0
2017-Sep-13 02:30N 51°29' E 003°42'0 0.0
2017-Sep-13 02:00N 51°29' E 003°42'2 3.0
2017-Sep-13 01:31N 51°27' E 003°41'5 9.3
2017-Sep-13 01:01N 51°26' E 003°34'4 8.6
2017-Sep-13 00:30N 51°29' E 003°30'4 6.9
2017-Sep-13 00:00N 51°32' E 003°26'0 0.1
2017-Sep-12 23:30N 51°32' E 003°26'0 0.1
2017-Sep-12 23:00N 51°32' E 003°26'4 8.4
2017-Sep-12 22:29N 51°36' E 003°24'4 7.7
2017-Sep-12 21:59N 51°40' E 003°22'1 1.5
2017-Sep-12 21:30N 51°40' E 003°23'0 0.5
2017-Sep-12 21:00N 51°40' E 003°22'2 4.7
2017-Sep-12 20:30N 51°38' E 003°22'510.9
2017-Sep-12 20:00N 51°33' E 003°27'0 0.1
2017-Sep-12 19:31N 51°33' E 003°27'0 0.0
2017-Sep-12 19:01N 51°33' E 003°27'3 5.1
2017-Sep-12 18:30N 51°35' E 003°24'4 8.7
2017-Sep-12 18:00N 51°39' E 003°22'1 1.7
2017-Sep-12 17:30N 51°40' E 003°22'0 0.6
2017-Sep-12 17:00N 51°40' E 003°23'2 2.8
2017-Sep-12 16:27N 51°39' E 003°22'511.7
2017-Sep-12 16:00N 51°34' E 003°26'1 2.0
2017-Sep-12 15:30N 51°33' E 003°27'0 0.2
2017-Sep-12 15:00N 51°33' E 003°27'1 1.4
2017-Sep-12 14:30N 51°34' E 003°26'712.6
2017-Sep-12 13:57N 51°40' E 003°22'0 0.0
2017-Sep-12 13:30N 51°40' E 003°22'0 0.8
2017-Sep-12 13:01N 51°40' E 003°23'1 1.6
2017-Sep-12 12:30N 51°40' E 003°22'4 8.5
2017-Sep-12 12:01N 51°36' E 003°24'4 7.6
2017-Sep-12 11:30N 51°32' E 003°26'0 0.0
2017-Sep-12 11:00N 51°32' E 003°26'1 1.5
2017-Sep-12 10:30N 51°33' E 003°26'6 9.7
2017-Sep-12 09:50N 51°39' E 003°22'1 3.0
2017-Sep-12 09:28N 51°40' E 003°22'1 1.4
2017-Sep-12 09:00N 51°40' E 003°23'0 0.9
2017-Sep-12 08:30N 51°40' E 003°22'2 4.3
2017-Sep-12 08:00N 51°38' E 003°23'510.8
2017-Sep-12 07:30N 51°33' E 003°27'0 0.3
2017-Sep-12 07:01N 51°33' E 003°27'0 0.1
2017-Sep-12 06:30N 51°33' E 003°27'5 7.2
2017-Sep-12 05:51N 51°37' E 003°23'3 8.3
2017-Sep-12 05:30N 51°40' E 003°21'1 1.3
2017-Sep-12 05:01N 51°40' E 003°22'0 0.6
2017-Sep-12 04:30N 51°40' E 003°23'1 2.8
2017-Sep-12 04:01N 51°39' E 003°22'510.2
2017-Sep-12 03:31N 51°34' E 003°25'2 4.4
2017-Sep-12 03:01N 51°32' E 003°26'0 0.1
2017-Sep-12 02:31N 51°32' E 003°26'  
Track history (hours):
 
Tides and Currents Weather Stations Pressure Air Temp Water Temp Dewpoint Dewpoint Depression Visibility Wind Speed Wind Dir Waves Ship Positions

Njord R

Last reported at 2017-Sep-22 02:00 UTC. Time now 2017-Sep-23 16:40 UTC.
Position N 51°37' E 003°23'.

Length 111 m; draft 7 m.

Type: Dredging. MMSI: 219387000.

Date/timePositionNaut miles runAvg speedWind from/ knotsBaromVisibWave heightAir tempDewpointWater temp
2017-Sep-22 02:00N 51°37' E 003°23'5 9.7
2017-Sep-22 01:30N 51°33' E 003°28'0 0.0
2017-Sep-22 00:59N 51°33' E 003°27'0 0.2
2017-Sep-22 00:30N 51°33' E 003°27'1 1.9
2017-Sep-22 00:00N 51°34' E 003°26'3 6.7
2017-Sep-21 23:30N 51°37' E 003°23'4 7.2
2017-Sep-21 23:00N 51°40' E 003°22'0 0.6
2017-Sep-21 22:30N 51°40' E 003°23'0 0.8
2017-Sep-21 22:00N 51°40' E 003°22'1 1.7
2017-Sep-21 21:30N 51°39' E 003°22'4 8.5
2017-Sep-21 21:00N 51°35' E 003°24'4 7.2
2017-Sep-21 20:30N 51°32' E 003°26'0 0.0
2017-Sep-21 20:00N 51°32' E 003°26'3 6.5
2017-Sep-21 19:29N 51°35' E 003°24'5 9.2
2017-Sep-21 19:00N 51°39' E 003°22'1 1.9
2017-Sep-21 18:25N 51°40' E 003°22'1 1.4
2017-Sep-21 17:59N 51°40' E 003°22'0 0.0
2017-Sep-21 17:26N 51°40' E 003°22'612.7
2017-Sep-21 17:00N 51°35' E 003°25'2 3.6
2017-Sep-21 16:30N 51°33' E 003°27'0 0.3
2017-Sep-21 16:00N 51°33' E 003°27'4 7.4
2017-Sep-21 15:28N 51°37' E 003°23'4 7.3
2017-Sep-21 14:58N 51°40' E 003°23'0 0.7
2017-Sep-21 14:29N 51°40' E 003°22'0 0.4
2017-Sep-21 13:48N 51°40' E 003°22'412.2
2017-Sep-21 13:30N 51°36' E 003°24'4 7.7
2017-Sep-21 12:59N 51°33' E 003°27'0 0.1
2017-Sep-21 12:30N 51°33' E 003°27'3 4.8
2017-Sep-21 11:58N 51°35' E 003°24'510.7
2017-Sep-21 11:30N 51°40' E 003°22'1 1.0
2017-Sep-21 10:49N 51°40' E 003°23'0 1.0
2017-Sep-21 10:28N 51°40' E 003°22'3 5.8
2017-Sep-21 10:00N 51°37' E 003°23'510.9
2017-Sep-21 09:30N 51°32' E 003°26'0 0.6
2017-Sep-21 09:00N 51°32' E 003°26'0 0.0
2017-Sep-21 08:30N 51°32' E 003°26'2 3.9
2017-Sep-21 07:54N 51°34' E 003°24'4 9.3
2017-Sep-21 07:30N 51°37' E 003°22'3 5.5
2017-Sep-21 06:59N 51°40' E 003°23'1 1.0
2017-Sep-21 06:27N 51°40' E 003°22'1 1.3
2017-Sep-21 06:00N 51°40' E 003°23'3 6.4
2017-Sep-21 05:30N 51°37' E 003°23'5 9.2
2017-Sep-21 04:58N 51°33' E 003°27'0 0.2
2017-Sep-21 04:29N 51°33' E 003°27'0 0.2
2017-Sep-21 04:00N 51°33' E 003°27'2 4.6
2017-Sep-21 03:28N 51°35' E 003°25'5 8.9
2017-Sep-21 02:56N 51°40' E 003°22'0 0.4
2017-Sep-21 02:30N 51°40' E 003°22'1 1.1
2017-Sep-21 02:00N 51°40' E 003°23'3 5.2
2017-Sep-21 01:30N 51°38' E 003°23'510.5
2017-Sep-21 01:00N 51°33' E 003°27'0 0.0
2017-Sep-21 00:30N 51°33' E 003°27'0 0.3
2017-Sep-21 00:00N 51°33' E 003°27'2 4.2
2017-Sep-20 23:28N 51°35' E 003°25'510.8
2017-Sep-20 23:00N 51°40' E 003°22'1 1.7
2017-Sep-20 22:30N 51°40' E 003°23'0 0.8
2017-Sep-20 22:00N 51°40' E 003°22'3 6.1
2017-Sep-20 21:30N 51°37' E 003°23'510.6
2017-Sep-20 21:01N 51°32' E 003°26'0 0.0
2017-Sep-20 20:30N 51°32' E 003°26'0 0.1
2017-Sep-20 20:00N 51°32' E 003°26'1 2.3
2017-Sep-20 19:30N 51°33' E 003°25'5 8.2
2017-Sep-20 18:55N 51°37' E 003°23'3 6.0
2017-Sep-20 18:29N 51°40' E 003°22'0 0.4
2017-Sep-20 18:00N 51°40' E 003°23'0 0.9
2017-Sep-20 17:30N 51°40' E 003°22'0 0.2
2017-Sep-20 16:57N 51°40' E 003°22'4 9.9
2017-Sep-20 16:30N 51°36' E 003°24'3 6.2
2017-Sep-20 15:59N 51°33' E 003°27'0 0.1
2017-Sep-20 15:27N 51°33' E 003°27'3 6.9
2017-Sep-20 14:59N 51°36' E 003°24'5 4.6
2017-Sep-20 14:00N 51°40' E 003°23'1 2.3
2017-Sep-20 13:30N 51°39' E 003°22'612.8
2017-Sep-20 13:00N 51°33' E 003°27'0 0.9
2017-Sep-20 12:30N 51°33' E 003°27'0 0.0
2017-Sep-20 12:00N 51°33' E 003°27'0 0.5
2017-Sep-20 11:30N 51°33' E 003°27'1 1.6
2017-Sep-20 11:00N 51°34' E 003°26'0 0.2
2017-Sep-20 10:30N 51°34' E 003°26'0 0.1
2017-Sep-20 10:00N 51°34' E 003°26'0 0.2
2017-Sep-20 09:30N 51°33' E 003°26'0 0.4
2017-Sep-20 09:00N 51°34' E 003°26'2 4.1
2017-Sep-20 08:30N 51°35' E 003°23'4 5.7
2017-Sep-20 07:53N 51°38' E 003°22'2 3.9
2017-Sep-20 07:26N 51°40' E 003°23'0 0.3
2017-Sep-20 06:59N 51°40' E 003°22'0 0.2
2017-Sep-20 06:30N 51°40' E 003°22'1 1.1
2017-Sep-20 05:57N 51°40' E 003°22'3 6.8
2017-Sep-20 05:30N 51°37' E 003°23'510.3
2017-Sep-20 04:59N 51°32' E 003°26'1 1.8
2017-Sep-20 04:30N 51°33' E 003°26'4 8.5
2017-Sep-20 04:00N 51°37' E 003°23'3 6.4
2017-Sep-20 03:29N 51°40' E 003°22'1 1.0
2017-Sep-20 02:59N 51°40' E 003°23'0 0.8
2017-Sep-20 02:30N 51°40' E 003°22'4 8.5
2017-Sep-20 02:00N 51°36' E 003°24'3 6.8
2017-Sep-20 01:30N 51°33' E 003°28'0 0.0
2017-Sep-20 00:59N 51°33' E 003°28'0 0.2
2017-Sep-20 00:30N 51°33' E 003°27'0 0.1
2017-Sep-20 00:00N 51°33' E 003°27'3 5.1
2017-Sep-19 23:25N 51°35' E 003°24'410.5
2017-Sep-19 23:00N 51°40' E 003°22'1 1.4
2017-Sep-19 22:30N 51°40' E 003°23'1 1.3
2017-Sep-19 22:00N 51°40' E 003°22'3 5.1
2017-Sep-19 21:30N 51°37' E 003°23'510.8
2017-Sep-19 21:00N 51°32' E 003°26'1 1.2
2017-Sep-19 20:30N 51°32' E 003°26'3 6.0
2017-Sep-19 20:00N 51°35' E 003°24'510.6
2017-Sep-19 19:30N 51°40' E 003°22'1 1.2
2017-Sep-19 19:00N 51°40' E 003°22'0 0.7
2017-Sep-19 18:30N 51°40' E 003°23'0 0.9
2017-Sep-19 18:00N 51°40' E 003°22'4 8.0
2017-Sep-19 17:30N 51°36' E 003°24'5 9.1
2017-Sep-19 17:00N 51°32' E 003°26'0 0.0
2017-Sep-19 16:28N 51°32' E 003°26'2 3.5
2017-Sep-19 16:00N 51°33' E 003°26'3 5.0
2017-Sep-19 15:28N 51°36' E 003°24'4 9.1
2017-Sep-19 15:00N 51°40' E 003°22'0 0.9
2017-Sep-19 14:30N 51°40' E 003°22'0 0.1
2017-Sep-19 14:00N 51°40' E 003°22'4 8.1
2017-Sep-19 13:30N 51°36' E 003°24'4 7.6
2017-Sep-19 13:00N 51°33' E 003°27'0 0.1
2017-Sep-19 12:30N 51°33' E 003°27'0 0.1
2017-Sep-19 12:00N 51°33' E 003°27'0 0.3
2017-Sep-19 11:30N 51°33' E 003°27'4 7.5
2017-Sep-19 11:00N 51°37' E 003°24'4 7.9
2017-Sep-19 10:30N 51°40' E 003°23'1 1.1
2017-Sep-19 10:00N 51°40' E 003°22'0 0.8
2017-Sep-19 09:29N 51°40' E 003°23'1 1.1
2017-Sep-19 09:00N 51°40' E 003°22'3 5.4
2017-Sep-19 08:30N 51°37' E 003°23'510.4
2017-Sep-19 08:00N 51°32' E 003°26'0 0.8
2017-Sep-19 07:29N 51°32' E 003°26'0 0.0
2017-Sep-19 07:00N 51°32' E 003°26'3 6.3
2017-Sep-19 06:30N 51°35' E 003°24'5 9.2
2017-Sep-19 06:00N 51°39' E 003°20'2 3.9
2017-Sep-19 05:29N 51°40' E 003°23'0 0.2
2017-Sep-19 04:59N 51°40' E 003°23'0 1.0
2017-Sep-19 04:30N 51°40' E 003°22'4 7.6
2017-Sep-19 04:00N 51°36' E 003°24'4 7.3
2017-Sep-19 03:30N 51°33' E 003°27'0 0.1
2017-Sep-19 03:00N 51°33' E 003°27'0 0.2
2017-Sep-19 02:30N 51°33' E 003°27'4 7.9
2017-Sep-19 02:00N 51°37' E 003°24'3 6.6
2017-Sep-19 01:29N 51°40' E 003°22'1 1.4
2017-Sep-19 00:59N 51°40' E 003°23'1 2.3
2017-Sep-19 00:30N 51°39' E 003°22'611.7
2017-Sep-19 00:00N 51°34' E 003°26'1 2.4
2017-Sep-18 23:30N 51°33' E 003°27'0 0.1
2017-Sep-18 23:00N 51°33' E 003°27'0 0.2
2017-Sep-18 22:30N 51°33' E 003°27'1 1.3
2017-Sep-18 21:59N 51°34' E 003°26'5 9.4
2017-Sep-18 21:26N 51°38' E 003°22'2 3.8
2017-Sep-18 21:00N 51°40' E 003°22'0 0.2
2017-Sep-18 20:30N 51°40' E 003°22'1 1.1
2017-Sep-18 20:00N 51°40' E 003°22'5 9.8
2017-Sep-18 19:30N 51°35' E 003°24'3 6.6
2017-Sep-18 19:00N 51°32' E 003°26'0 0.1
2017-Sep-18 18:30N 51°32' E 003°26'1 2.9
2017-Sep-18 17:59N 51°33' E 003°25'4 9.4
2017-Sep-18 17:30N 51°37' E 003°22'3 5.3
2017-Sep-18 16:59N 51°40' E 003°23'0 0.4
2017-Sep-18 16:30N 51°40' E 003°22'1 1.3
2017-Sep-18 16:01N 51°40' E 003°22'612.4
2017-Sep-18 15:30N 51°34' E 003°26'1 2.0
2017-Sep-18 15:00N 51°33' E 003°27'0 0.0
2017-Sep-18 14:30N 51°33' E 003°27'0 0.1
2017-Sep-18 14:00N 51°33' E 003°27'2 4.9
2017-Sep-18 13:30N 51°35' E 003°25'5 8.9
2017-Sep-18 12:57N 51°40' E 003°22'0 0.2
2017-Sep-18 12:30N 51°40' E 003°22'1 1.0
2017-Sep-18 11:53N 51°40' E 003°23'0 1.2
2017-Sep-18 11:30N 51°40' E 003°22'5 9.9
2017-Sep-18 11:00N 51°35' E 003°25'3 5.2
2017-Sep-18 10:30N 51°33' E 003°27'0 0.1
2017-Sep-18 10:00N 51°33' E 003°27'1 1.4
2017-Sep-18 09:30N 51°34' E 003°26'0 0.4
2017-Sep-18 09:00N 51°34' E 003°26'2 3.0
2017-Sep-18 08:30N 51°35' E 003°24'4 8.6
2017-Sep-18 08:00N 51°39' E 003°22'2 3.5
2017-Sep-18 07:30N 51°40' E 003°23'0 0.9
2017-Sep-18 06:58N 51°40' E 003°22'0 0.9
2017-Sep-18 06:29N 51°40' E 003°22'4 8.3
2017-Sep-18 06:00N 51°36' E 003°24'4 8.4
2017-Sep-18 05:30N 51°32' E 003°26'0 0.1
2017-Sep-18 04:59N 51°32' E 003°26'0 0.0
2017-Sep-18 04:30N 51°32' E 003°26'1 2.3
2017-Sep-18 04:00N 51°33' E 003°25'5 9.3
2017-Sep-18 03:29N 51°38' E 003°23'2 4.6
2017-Sep-18 03:00N 51°40' E 003°22'0 0.5
2017-Sep-18 02:27N 51°40' E 003°22'1 2.9
2017-Sep-18 02:00N 51°39' E 003°22'612.2
2017-Sep-18 01:31N 51°33' E 003°27'0 0.7
2017-Sep-18 01:00N 51°33' E 003°27'0 0.2
2017-Sep-18 00:30N 51°33' E 003°27'3 6.4
2017-Sep-18 00:00N 51°36' E 003°24'4 7.8
2017-Sep-17 23:28N 51°40' E 003°22'0 0.9
2017-Sep-17 23:00N 51°40' E 003°22'1 1.5
2017-Sep-17 22:30N 51°40' E 003°22'5 9.8
2017-Sep-17 22:00N 51°35' E 003°25'3 5.1
2017-Sep-17 21:30N 51°33' E 003°27'0 0.1
2017-Sep-17 21:00N 51°33' E 003°27'1 1.7
2017-Sep-17 20:30N 51°34' E 003°26'0 0.2
2017-Sep-17 20:00N 51°34' E 003°26'1 1.1
2017-Sep-17 19:30N 51°34' E 003°25'2 4.3
2017-Sep-17 19:00N 51°36' E 003°24'2 4.0
2017-Sep-17 18:27N 51°38' E 003°22'2 4.8
2017-Sep-17 18:00N 51°40' E 003°22'0 0.2
2017-Sep-17 17:30N 51°40' E 003°22'0 0.8
2017-Sep-17 17:00N 51°40' E 003°22'2 3.5
2017-Sep-17 16:29N 51°38' E 003°22'612.0
2017-Sep-17 16:00N 51°33' E 003°26'1 1.4
2017-Sep-17 15:29N 51°32' E 003°26'1 2.3
2017-Sep-17 14:58N 51°33' E 003°25'4 8.5
2017-Sep-17 14:30N 51°36' E 003°22'4 8.2
2017-Sep-17 14:00N 51°40' E 003°23'1 2.0
2017-Sep-17 13:30N 51°40' E 003°22'1 1.1
2017-Sep-17 13:01N 51°40' E 003°22'0 0.9
2017-Sep-17 12:30N 51°40' E 003°23'3 5.1
2017-Sep-17 12:00N 51°38' E 003°23'511.0
2017-Sep-17 11:30N 51°33' E 003°27'0 0.2
2017-Sep-17 11:00N 51°33' E 003°27'0 0.0
2017-Sep-17 10:30N 51°33' E 003°27'0 0.0
2017-Sep-17 10:00N 51°33' E 003°27'0 0.1
2017-Sep-17 09:30N 51°33' E 003°27'0 0.4
2017-Sep-17 09:00N 51°33' E 003°27'3 5.8
2017-Sep-17 08:29N 51°36' E 003°24'4 8.6
2017-Sep-17 08:00N 51°40' E 003°22'1 1.3
2017-Sep-17 07:29N 51°40' E 003°23'0 0.5
2017-Sep-17 07:00N 51°40' E 003°22'1 1.1
2017-Sep-17 06:30N 51°40' E 003°22'5 9.6
2017-Sep-17 06:00N 51°35' E 003°24'4 6.9
2017-Sep-17 05:29N 51°32' E 003°26'0 0.0
2017-Sep-17 04:59N 51°32' E 003°26'0 0.1
2017-Sep-17 04:30N 51°32' E 003°26'3 4.5
2017-Sep-17 03:56N 51°34' E 003°24'4 9.3
2017-Sep-17 03:30N 51°38' E 003°22'2 3.9
2017-Sep-17 03:00N 51°40' E 003°22'0 0.6
2017-Sep-17 02:29N 51°40' E 003°22'2 3.5
2017-Sep-17 02:00N 51°38' E 003°22'611.9
2017-Sep-17 01:31N 51°33' E 003°27'0 0.1
2017-Sep-17 01:00N 51°33' E 003°27'0 0.4
2017-Sep-17 00:30N 51°33' E 003°27'4 8.3
2017-Sep-17 00:00N 51°37' E 003°23'3 6.3
2017-Sep-16 23:30N 51°40' E 003°22'0 0.4
2017-Sep-16 23:00N 51°40' E 003°22'0 0.2
2017-Sep-16 22:29N 51°40' E 003°22'5 9.8
2017-Sep-16 22:00N 51°36' E 003°24'3 6.1
2017-Sep-16 21:30N 51°33' E 003°27'0 0.0
2017-Sep-16 21:00N 51°33' E 003°27'0 0.3
2017-Sep-16 20:30N 51°33' E 003°27'4 7.6
2017-Sep-16 19:55N 51°37' E 003°23'3 7.2
2017-Sep-16 19:29N 51°40' E 003°20'1 1.3
2017-Sep-16 19:00N 51°39' E 003°21'1 2.2
2017-Sep-16 18:30N 51°40' E 003°23'0 0.5
2017-Sep-16 18:01N 51°40' E 003°22'1 1.1
2017-Sep-16 17:27N 51°40' E 003°22'3 7.7
2017-Sep-16 17:00N 51°36' E 003°24'5 9.5
2017-Sep-16 16:30N 51°32' E 003°26'0 0.3
2017-Sep-16 16:00N 51°32' E 003°26'0 0.0
2017-Sep-16 15:30N 51°32' E 003°26'4 7.4
2017-Sep-16 15:00N 51°36' E 003°24'4 8.6
2017-Sep-16 14:30N 51°40' E 003°22'1 1.4
2017-Sep-16 14:00N 51°40' E 003°22'1 1.0
2017-Sep-16 13:30N 51°40' E 003°22'510.0
2017-Sep-16 13:01N 51°35' E 003°25'3 5.3
2017-Sep-16 12:31N 51°33' E 003°27'0 0.1
2017-Sep-16 12:01N 51°33' E 003°27'1 1.2
2017-Sep-16 11:30N 51°34' E 003°26'4 8.4
2017-Sep-16 11:00N 51°37' E 003°23'3 5.5
2017-Sep-16 10:30N 51°40' E 003°22'0 0.4
2017-Sep-16 09:58N 51°40' E 003°22'1 1.3
2017-Sep-16 09:30N 51°40' E 003°23'3 6.8
2017-Sep-16 09:00N 51°37' E 003°24'4 8.5
2017-Sep-16 08:30N 51°33' E 003°27'0 0.1
2017-Sep-16 08:00N 51°33' E 003°27'0 0.1
2017-Sep-16 07:30N 51°33' E 003°27'1 1.7
2017-Sep-16 07:00N 51°34' E 003°26'0 0.4
2017-Sep-16 06:30N 51°34' E 003°26'1 1.1
2017-Sep-16 06:00N 51°34' E 003°25'2 4.1
2017-Sep-16 05:30N 51°36' E 003°24'3 6.2
2017-Sep-16 05:01N 51°39' E 003°22'2 3.2
2017-Sep-16 04:30N 51°40' E 003°23'0 0.9
2017-Sep-16 04:00N 51°40' E 003°22'1 2.2
2017-Sep-16 03:30N 51°39' E 003°22'611.7
2017-Sep-16 03:00N 51°33' E 003°25'2 3.2
2017-Sep-16 02:31N 51°32' E 003°26'0 0.1
2017-Sep-16 02:00N 51°32' E 003°26'5 7.6
2017-Sep-16 01:23N 51°36' E 003°23'4 9.3
2017-Sep-16 01:00N 51°40' E 003°22'1 1.1
2017-Sep-16 00:30N 51°40' E 003°23'1 1.0
2017-Sep-15 23:59N 51°40' E 003°22'510.9
2017-Sep-15 23:30N 51°35' E 003°24'2 4.8
2017-Sep-15 23:00N 51°33' E 003°27'0 0.0
2017-Sep-15 22:31N 51°33' E 003°27'1 2.0
2017-Sep-15 22:00N 51°34' E 003°26'5 9.3
2017-Sep-15 21:30N 51°38' E 003°22'2 3.4
2017-Sep-15 21:00N 51°40' E 003°22'1 1.7
2017-Sep-15 20:31N 51°40' E 003°23'1 2.4
2017-Sep-15 20:00N 51°39' E 003°22'510.4
2017-Sep-15 19:31N 51°35' E 003°25'2 3.7
2017-Sep-15 19:00N 51°33' E 003°27'0 0.1
2017-Sep-15 18:30N 51°33' E 003°27'1 1.4
2017-Sep-15 18:01N 51°34' E 003°26'3 5.1
2017-Sep-15 17:24N 51°36' E 003°24'4 9.0
2017-Sep-15 17:00N 51°40' E 003°22'0 0.6
2017-Sep-15 16:27N 51°40' E 003°22'0 0.8
2017-Sep-15 16:00N 51°40' E 003°23'2 4.9
2017-Sep-15 15:30N 51°38' E 003°23'510.9
2017-Sep-15 15:00N 51°33' E 003°25'1 1.9
2017-Sep-15 14:30N 51°32' E 003°26'0 0.1
2017-Sep-15 14:00N 51°32' E 003°26'2 4.0
2017-Sep-15 13:30N 51°34' E 003°25'6 9.5
2017-Sep-15 12:53N 51°39' E 003°22'0 0.7
2017-Sep-15 12:09N 51°40' E 003°21'0 1.3
2017-Sep-15 12:00N 51°40' E 003°22'1 1.3
2017-Sep-15 11:25N 51°40' E 003°23'3 6.2
2017-Sep-15 11:01N 51°38' E 003°23'510.6
2017-Sep-15 10:31N 51°33' E 003°27'0 0.1
2017-Sep-15 10:00N 51°33' E 003°27'0 0.1
2017-Sep-15 09:31N 51°33' E 003°27'1 1.2
2017-Sep-15 09:00N 51°34' E 003°26'4 8.6
2017-Sep-15 08:29N 51°37' E 003°23'3 4.6
2017-Sep-15 07:56N 51°40' E 003°22'0 0.8
2017-Sep-15 07:28N 51°40' E 003°22'0 1.0
2017-Sep-15 07:00N 51°40' E 003°23'4 8.7
2017-Sep-15 06:31N 51°36' E 003°24'3 6.8
2017-Sep-15 06:00N 51°33' E 003°27'0 0.1
2017-Sep-15 05:31N 51°33' E 003°27'1 1.2
2017-Sep-15 04:59N 51°34' E 003°26'1 3.0
2017-Sep-15 04:30N 51°35' E 003°25'2 3.7
2017-Sep-15 04:00N 51°36' E 003°24'3 6.7
2017-Sep-15 03:30N 51°39' E 003°22'0 0.6
2017-Sep-15 03:01N 51°40' E 003°22'0 1.0
2017-Sep-15 02:30N 51°40' E 003°22'0 0.5
2017-Sep-15 01:59N 51°40' E 003°22'0 0.0
2017-Sep-15 01:26N 51°40' E 003°22'0 0.1
2017-Sep-15 00:59N 51°40' E 003°22'0 0.0
2017-Sep-15 00:26N 51°40' E 003°22'0 0.1
2017-Sep-14 23:47N 51°40' E 003°22'0 0.1
2017-Sep-14 23:29N 51°40' E 003°22'0 0.0
2017-Sep-14 22:50N 51°40' E 003°22'0 0.0
2017-Sep-14 22:26N 51°40' E 003°22'0 0.1
2017-Sep-14 21:53N 51°40' E 003°22'0 0.0
2017-Sep-14 21:29N 51°40' E 003°22'0 0.1
2017-Sep-14 20:59N 51°40' E 003°22'0 0.0
2017-Sep-14 19:44N 51°40' E 003°22'0 0.1
2017-Sep-14 19:19N 51°40' E 003°22'0 0.0
2017-Sep-14 18:59N 51°40' E 003°22'0 0.1
2017-Sep-14 18:26N 51°40' E 003°22'0 0.0
2017-Sep-14 17:08N 51°40' E 003°22'0 0.0
2017-Sep-14 16:14N 51°40' E 003°22'0 0.1
2017-Sep-14 15:59N 51°40' E 003°22'0 0.0
2017-Sep-14 15:29N 51°40' E 003°22'0 0.1
2017-Sep-14 14:53N 51°40' E 003°22'0 0.1
2017-Sep-14 14:25N 51°40' E 003°22'0 0.0
2017-Sep-14 13:50N 51°40' E 003°22'0 0.0
2017-Sep-14 13:22N 51°40' E 003°22'0 0.1
2017-Sep-14 12:55N 51°40' E 003°22'0 0.1
2017-Sep-14 12:29N 51°40' E 003°22'0 0.3
2017-Sep-14 12:00N 51°40' E 003°22'1 1.1
2017-Sep-14 11:30N 51°40' E 003°23'2 3.4
2017-Sep-14 11:00N 51°39' E 003°22'510.4
2017-Sep-14 10:31N 51°34' E 003°26'1 2.3
2017-Sep-14 10:00N 51°33' E 003°27'0 0.1
2017-Sep-14 09:30N 51°33' E 003°27'3 6.4
2017-Sep-14 08:58N 51°36' E 003°24'4 8.3
2017-Sep-14 08:29N 51°40' E 003°21'0 1.0
2017-Sep-14 08:00N 51°40' E 003°22'1 1.2
2017-Sep-14 07:30N 51°40' E 003°23'3 5.3
2017-Sep-14 07:00N 51°38' E 003°23'611.5
2017-Sep-14 06:31N 51°32' E 003°26'611.0
2017-Sep-14 06:00N 51°28' E 003°31'4 8.3
2017-Sep-14 05:30N 51°26' E 003°37'3 6.3
2017-Sep-14 05:00N 51°28' E 003°42'1 1.9
2017-Sep-14 04:30N 51°29' E 003°42'0 0.0
2017-Sep-14 04:00N 51°29' E 003°42'0 0.0
2017-Sep-14 03:27N 51°29' E 003°42'0 0.0
2017-Sep-14 03:00N 51°29' E 003°42'0 0.0
2017-Sep-14 02:31N 51°29' E 003°42'0 0.0
2017-Sep-14 02:01N 51°29' E 003°42'0 0.0
2017-Sep-14 01:30N 51°29' E 003°42'0 0.0
2017-Sep-14 01:01N 51°29' E 003°42'0 0.0
2017-Sep-14 00:30N 51°29' E 003°42'0 0.0
2017-Sep-14 00:00N 51°29' E 003°42'0 0.0
2017-Sep-13 23:30N 51°29' E 003°42'0 0.0
2017-Sep-13 23:00N 51°29' E 003°42'0 0.0
2017-Sep-13 22:30N 51°29' E 003°42'0 0.0
2017-Sep-13 22:00N 51°29' E 003°42'0 0.0
2017-Sep-13 21:31N 51°29' E 003°42'0 0.0
2017-Sep-13 21:00N 51°29' E 003°42'0 0.0
2017-Sep-13 20:30N 51°29' E 003°42'0 0.0
2017-Sep-13 20:00N 51°29' E 003°42'0 0.0
2017-Sep-13 19:30N 51°29' E 003°42'0 0.0
2017-Sep-13 19:00N 51°29' E 003°42'0 0.0
2017-Sep-13 18:30N 51°29' E 003°42'0 0.0
2017-Sep-13 18:01N 51°29' E 003°42'0 0.0
2017-Sep-13 17:29N 51°29' E 003°42'0 0.0
2017-Sep-13 17:00N 51°29' E 003°42'0 0.0
2017-Sep-13 16:30N 51°29' E 003°42'0 0.0
2017-Sep-13 16:00N 51°29' E 003°42'0 0.0
2017-Sep-13 15:30N 51°29' E 003°42'0 0.0
2017-Sep-13 15:00N 51°29' E 003°42'0 0.0
2017-Sep-13 14:30N 51°29' E 003°42'0 0.0
2017-Sep-13 14:00N 51°29' E 003°42'0 0.0
2017-Sep-13 13:31N 51°29' E 003°42'0 0.0
2017-Sep-13 13:01N 51°29' E 003°42'0 0.0
2017-Sep-13 12:31N 51°29' E 003°42'0 0.0
2017-Sep-13 12:01N 51°29' E 003°42'0 0.0
2017-Sep-13 11:31N 51°29' E 003°42'0 0.0
2017-Sep-13 10:59N 51°29' E 003°42'0 0.0
2017-Sep-13 10:30N 51°29' E 003°42'0 0.0
2017-Sep-13 10:01N 51°29' E 003°42'0 0.0
2017-Sep-13 09:31N 51°29' E 003°42'0 0.0
2017-Sep-13 09:00N 51°29' E 003°42'0 0.0
2017-Sep-13 08:31N 51°29' E 003°42'0 0.0
2017-Sep-13 08:00N 51°29' E 003°42'0 0.0
2017-Sep-13 07:29N 51°29' E 003°42'0 0.0
2017-Sep-13 07:00N 51°29' E 003°42'0 0.0
2017-Sep-13 06:30N 51°29' E 003°42'0 0.0
2017-Sep-13 06:01N 51°29' E 003°42'0 0.0
2017-Sep-13 05:31N 51°29' E 003°42'0 0.0
2017-Sep-13 05:00N 51°29' E 003°42'0 0.0
2017-Sep-13 04:30N 51°29' E 003°42'0 0.0
2017-Sep-13 04:00N 51°29' E 003°42'0 0.0
2017-Sep-13 03:30N 51°29' E 003°42'0 0.0
2017-Sep-13 03:01N 51°29' E 003°42'0 0.0
2017-Sep-13 02:30N 51°29' E 003°42'0 0.0
2017-Sep-13 02:00N 51°29' E 003°42'2 3.0
2017-Sep-13 01:31N 51°27' E 003°41'5 9.3
2017-Sep-13 01:01N 51°26' E 003°34'4 8.6
2017-Sep-13 00:30N 51°29' E 003°30'4 6.9
2017-Sep-13 00:00N 51°32' E 003°26'0 0.1
2017-Sep-12 23:30N 51°32' E 003°26'0 0.1
2017-Sep-12 23:00N 51°32' E 003°26'4 8.4
2017-Sep-12 22:29N 51°36' E 003°24'4 7.7
2017-Sep-12 21:59N 51°40' E 003°22'1 1.5
2017-Sep-12 21:30N 51°40' E 003°23'0 0.5
2017-Sep-12 21:00N 51°40' E 003°22'2 4.7
2017-Sep-12 20:30N 51°38' E 003°22'510.9
2017-Sep-12 20:00N 51°33' E 003°27'0 0.1
2017-Sep-12 19:31N 51°33' E 003°27'0 0.0
2017-Sep-12 19:01N 51°33' E 003°27'3 5.1
2017-Sep-12 18:30N 51°35' E 003°24'4 8.7
2017-Sep-12 18:00N 51°39' E 003°22'1 1.7
2017-Sep-12 17:30N 51°40' E 003°22'0 0.6
2017-Sep-12 17:00N 51°40' E 003°23'2 2.8
2017-Sep-12 16:27N 51°39' E 003°22'511.7
2017-Sep-12 16:00N 51°34' E 003°26'1 2.0
2017-Sep-12 15:30N 51°33' E 003°27'0 0.2
2017-Sep-12 15:00N 51°33' E 003°27'1 1.4
2017-Sep-12 14:30N 51°34' E 003°26'712.6
2017-Sep-12 13:57N 51°40' E 003°22'0 0.0
2017-Sep-12 13:30N 51°40' E 003°22'0 0.8
2017-Sep-12 13:01N 51°40' E 003°23'1 1.6
2017-Sep-12 12:30N 51°40' E 003°22'4 8.5
2017-Sep-12 12:01N 51°36' E 003°24'4 7.6
2017-Sep-12 11:30N 51°32' E 003°26'0 0.0
2017-Sep-12 11:00N 51°32' E 003°26'1 1.5
2017-Sep-12 10:30N 51°33' E 003°26'6 9.7
2017-Sep-12 09:50N 51°39' E 003°22'1 3.0
2017-Sep-12 09:28N 51°40' E 003°22'1 1.4
2017-Sep-12 09:00N 51°40' E 003°23'0 0.9
2017-Sep-12 08:30N 51°40' E 003°22'2 4.3
2017-Sep-12 08:00N 51°38' E 003°23'510.8
2017-Sep-12 07:30N 51°33' E 003°27'0 0.3
2017-Sep-12 07:01N 51°33' E 003°27'0 0.1
2017-Sep-12 06:30N 51°33' E 003°27'5 7.2
2017-Sep-12 05:51N 51°37' E 003°23'3 8.3
2017-Sep-12 05:30N 51°40' E 003°21'1 1.3
2017-Sep-12 05:01N 51°40' E 003°22'0 0.6
2017-Sep-12 04:30N 51°40' E 003°23'1 2.8
2017-Sep-12 04:01N 51°39' E 003°22'510.2
2017-Sep-12 03:31N 51°34' E 003°25'2 4.4
2017-Sep-12 03:01N 51°32' E 003°26'0 0.1
2017-Sep-12 02:31N 51°32' E 003°26'  

Dump ship's entire track history